Time;durP1;ratioP1;P1;durP2;ratioP2;P2;SDS_P1;SDS_P2;PMS_P1;PMS_P2;Temp;Humidity;BMP_temperature;BMP_pressure;BME280_temperature;BME280_humidity;BME280_pressure;Samples;Min_cycle;Max_cycle;Signal;HPM_P1;HPM_P2
2022/03/02 00:00:28;;;;;;;8.20;5.65;;;;;;;21.15;28.01;102478.59;7325799;19;129159;-62
2022/03/02 00:02:55;;;;;;;9.07;5.95;;;;;;;21.14;28.00;102476.91;7321261;19;130592;-62
2022/03/02 00:05:24;;;;;;;9.88;6.10;;;;;;;21.11;28.13;102460.66;7323507;19;129634;-62
2022/03/02 00:07:51;;;;;;;7.95;5.65;;;;;;;21.09;27.71;102470.31;7322667;19;129490;-62
2022/03/02 00:10:18;;;;;;;8.20;5.22;;;;;;;21.06;27.89;102458.56;7321871;19;129188;-62
2022/03/02 00:12:45;;;;;;;8.75;5.72;;;;;;;21.05;28.07;102456.84;7323618;19;130293;-62
2022/03/02 00:15:12;;;;;;;8.65;6.05;;;;;;;21.03;27.89;102458.16;7320772;19;129917;-62
2022/03/02 00:17:39;;;;;;;8.25;6.18;;;;;;;21.01;27.77;102454.75;7323190;19;129942;-62
2022/03/02 00:20:07;;;;;;;7.80;5.93;;;;;;;20.98;27.98;102456.06;7323658;19;129555;-62
2022/03/02 00:22:34;;;;;;;9.43;6.43;;;;;;;20.98;28.11;102457.97;7321747;19;129605;-62
2022/03/02 00:25:00;;;;;;;9.40;5.68;;;;;;;20.96;27.71;102458.19;7324105;19;130125;-62
2022/03/02 00:27:27;;;;;;;11.63;6.03;;;;;;;20.92;28.13;102454.16;7321366;19;129930;-62
2022/03/02 00:29:54;;;;;;;12.43;6.22;;;;;;;20.90;27.67;102448.81;7320596;19;130176;-62
2022/03/02 00:32:21;;;;;;;9.85;6.32;;;;;;;20.88;27.94;102450.97;7321316;19;130690;-62
2022/03/02 00:34:48;;;;;;;8.73;6.32;;;;;;;20.87;27.90;102451.19;7316184;19;130849;-62
2022/03/02 00:37:14;;;;;;;8.68;6.05;;;;;;;20.86;28.08;102447.56;7315199;19;129115;-61
2022/03/02 00:39:43;;;;;;;9.10;5.88;;;;;;;20.85;27.96;102451.41;7312311;19;129517;-62
2022/03/02 00:42:10;;;;;;;10.65;6.53;;;;;;;20.83;27.87;102448.00;7313742;19;129632;-62
2022/03/02 00:44:37;;;;;;;9.25;6.47;;;;;;;20.82;27.92;102449.06;7315843;19;130491;-62
2022/03/02 00:47:05;;;;;;;11.25;5.72;;;;;;;20.80;27.92;102448.44;7313688;19;129332;-62
2022/03/02 00:49:35;;;;;;;8.70;5.85;;;;;;;20.79;27.85;102446.78;7314764;19;129947;-62
2022/03/02 00:52:03;;;;;;;8.68;6.50;;;;;;;20.77;28.06;102448.03;7314942;19;129590;-62
2022/03/02 00:54:30;;;;;;;8.63;6.25;;;;;;;20.75;28.15;102443.56;7313343;19;130619;-62
2022/03/02 00:56:57;;;;;;;13.32;6.43;;;;;;;20.72;28.03;102445.91;7315432;19;128950;-61
2022/03/02 00:59:25;;;;;;;9.63;6.13;;;;;;;20.71;27.87;102445.06;7312867;19;130467;-62
2022/03/02 01:01:51;;;;;;;8.35;6.22;;;;;;;20.69;28.24;102451.91;7312745;19;130271;-62
2022/03/02 01:04:19;;;;;;;9.80;6.35;;;;;;;20.69;27.81;102446.34;7313513;19;130351;-62
2022/03/02 01:06:46;;;;;;;10.23;6.53;;;;;;;20.68;28.20;102441.84;7313729;19;130443;-62
2022/03/02 01:09:13;;;;;;;10.80;6.50;;;;;;;20.67;27.97;102442.97;7315616;19;129624;-62
2022/03/02 01:11:39;;;;;;;9.40;6.43;;;;;;;20.64;27.98;102441.47;7310988;19;130766;-62
2022/03/02 01:14:06;;;;;;;8.02;6.10;;;;;;;20.63;27.90;102436.13;7312413;19;129529;-62
2022/03/02 01:16:33;;;;;;;9.20;6.05;;;;;;;20.63;27.79;102436.13;7315574;19;129047;-62
2022/03/02 01:19:01;;;;;;;8.57;6.03;;;;;;;20.60;27.97;102435.50;7313369;19;131234;-62
2022/03/02 01:21:27;;;;;;;9.77;6.28;;;;;;;20.59;28.24;102436.56;7315692;19;129946;-62
2022/03/02 01:23:57;;;;;;;7.43;5.32;;;;;;;20.58;28.28;102443.22;7311890;19;130569;-62
2022/03/02 01:26:25;;;;;;;8.45;6.13;;;;;;;20.57;27.86;102440.66;7314482;19;129033;-61
2022/03/02 01:28:54;;;;;;;10.98;6.72;;;;;;;20.54;27.74;102439.19;7315736;19;131129;-62
2022/03/02 01:31:26;;;;;;;8.40;6.40;;;;;;;20.53;27.80;102437.47;7312607;19;129679;-62
2022/03/02 01:33:54;;;;;;;8.48;6.40;;;;;;;20.51;28.00;102438.75;7313058;19;129463;-62
2022/03/02 01:36:21;;;;;;;7.60;6.10;;;;;;;20.49;28.07;102436.22;7312378;19;129495;-62
2022/03/02 01:38:49;;;;;;;7.82;6.03;;;;;;;20.48;27.98;102440.06;7313094;19;128790;-62
2022/03/02 01:41:17;;;;;;;10.05;6.40;;;;;;;20.48;28.16;102428.94;7312228;19;129738;-62
2022/03/02 01:43:45;;;;;;;8.00;6.00;;;;;;;20.48;27.96;102436.44;7311961;19;129576;-62
2022/03/02 01:46:14;;;;;;;7.95;6.00;;;;;;;20.46;27.87;102436.66;7314113;19;129660;-62
2022/03/02 01:48:42;;;;;;;9.63;5.93;;;;;;;20.44;28.08;102434.09;7312086;19;129347;-62
2022/03/02 01:51:09;;;;;;;8.73;6.55;;;;;;;20.43;28.16;102423.22;7312905;19;129640;-62
2022/03/02 01:53:37;;;;;;;6.95;6.15;;;;;;;20.41;27.90;102422.56;7313424;19;130145;-61
2022/03/02 01:56:04;;;;;;;9.48;6.35;;;;;;;20.39;28.17;102420.00;7311972;19;129433;-62
2022/03/02 01:58:31;;;;;;;8.50;6.28;;;;;;;20.39;28.15;102420.00;7313773;19;129408;-62
2022/03/02 02:00:59;;;;;;;10.45;6.50;;;;;;;20.38;27.80;102417.44;7314155;19;131394;-62
2022/03/02 02:03:27;;;;;;;9.60;6.35;;;;;;;20.38;27.71;102417.44;7310172;19;131568;-62
2022/03/02 02:05:55;;;;;;;8.43;6.30;;;;;;;20.37;28.19;102415.75;7313940;19;130615;-62
2022/03/02 02:08:22;;;;;;;8.20;6.20;;;;;;;20.35;27.82;102423.44;7310769;19;129153;-62
2022/03/02 02:10:50;;;;;;;8.40;5.95;;;;;;;20.34;27.70;102414.28;7313173;19;129737;-62
2022/03/02 02:13:17;;;;;;;9.77;5.85;;;;;;;20.34;27.96;102410.63;7312742;19;129473;-62
2022/03/02 02:15:44;;;;;;;8.07;6.38;;;;;;;20.33;27.96;102409.78;7310377;19;129207;-64
2022/03/02 02:18:11;;;;;;;7.93;5.78;;;;;;;20.32;27.81;102410.84;7313709;19;128859;-62
2022/03/02 02:20:39;;;;;;;8.50;6.15;;;;;;;20.32;28.24;102401.66;7310839;19;129489;-62
2022/03/02 02:23:06;;;;;;;8.32;6.43;;;;;;;20.29;28.21;102409.38;7313388;19;129428;-63
2022/03/02 02:25:34;;;;;;;8.13;5.70;;;;;;;20.31;27.95;102399.97;7313390;19;129445;-62
2022/03/02 02:28:01;;;;;;;7.68;6.28;;;;;;;20.27;27.82;102394.84;7312101;19;131834;-62
2022/03/02 02:30:29;;;;;;;6.80;5.65;;;;;;;20.27;28.12;102389.28;7312083;19;129545;-61
2022/03/02 02:32:55;;;;;;;8.23;6.05;;;;;;;20.26;28.09;102393.16;7308779;19;129593;-62
2022/03/02 02:35:23;;;;;;;8.00;6.00;;;;;;;20.25;28.09;102391.44;7309814;19;128941;-62
2022/03/02 02:37:50;;;;;;;6.53;5.35;;;;;;;20.23;28.05;102388.03;7312439;19;128891;-62
2022/03/02 02:40:19;;;;;;;7.95;5.72;;;;;;;20.22;27.93;102385.47;7310508;19;129613;-62
2022/03/02 02:42:48;;;;;;;10.15;6.13;;;;;;;20.22;28.17;102386.31;7312604;19;131616;-62
2022/03/02 02:45:20;;;;;;;7.95;5.50;;;;;;;20.20;27.82;102377.34;7309647;19;129212;-62
2022/03/02 02:47:54;;;;;;;9.68;6.35;;;;;;;20.20;27.80;102374.56;7311165;19;130356;-62
2022/03/02 02:50:29;;;;;;;9.05;5.90;;;;;;;20.19;28.07;102372.84;7312748;19;131142;-62
2022/03/02 02:52:59;;;;;;;9.38;6.43;;;;;;;20.17;27.84;102372.25;7308750;19;129521;-62
2022/03/02 02:55:28;;;;;;;7.63;5.90;;;;;;;20.16;28.20;102373.31;7311853;19;129242;-62
2022/03/02 02:57:57;;;;;;;8.38;6.40;;;;;;;20.16;27.80;102373.31;7308366;19;130573;-62
2022/03/02 03:00:30;;;;;;;8.48;6.20;;;;;;;20.13;27.88;102374.59;7310533;19;131426;-62
2022/03/02 03:02:58;;;;;;;7.50;5.88;;;;;;;20.12;28.00;102363.72;7312557;19;131082;-62
2022/03/02 03:05:29;;;;;;;7.20;6.22;;;;;;;20.11;27.81;102367.56;7309550;19;128892;-62
2022/03/02 03:07:57;;;;;;;9.20;5.93;;;;;;;20.11;27.81;102367.56;7310614;19;129714;-62
2022/03/02 03:10:25;;;;;;;7.65;6.00;;;;;;;20.10;27.81;102371.41;7312357;19;129617;-62
2022/03/02 03:12:53;;;;;;;9.63;6.38;;;;;;;20.08;27.81;102373.56;7309006;19;129713;-62
2022/03/02 03:15:20;;;;;;;8.93;6.15;;;;;;;20.06;27.92;102365.44;7309432;19;128945;-61
2022/03/02 03:17:49;;;;;;;7.68;5.95;;;;;;;20.07;28.31;102366.28;7308785;19;129458;-62
2022/03/02 03:20:19;;;;;;;7.82;5.75;;;;;;;20.04;27.89;102364.81;7308913;19;129713;-62
2022/03/02 03:22:46;;;;;;;8.68;6.50;;;;;;;20.04;27.69;102361.19;7311771;19;129526;-62
2022/03/02 03:25:13;;;;;;;8.35;6.50;;;;;;;20.03;28.12;102359.50;7310875;19;129665;-63
2022/03/02 03:27:42;;;;;;;9.38;6.47;;;;;;;20.02;27.98;102355.84;7311298;19;129458;-62
2022/03/02 03:30:10;;;;;;;8.60;6.20;;;;;;;20.02;28.17;102366.13;7311796;19;130474;-62
2022/03/02 03:32:37;;;;;;;7.88;6.00;;;;;;;19.99;27.90;102359.06;7309019;19;129865;-62
2022/03/02 03:35:06;;;;;;;8.65;6.38;;;;;;;19.97;27.98;102366.75;7309578;19;129254;-61
2022/03/02 03:37:33;;;;;;;9.10;6.10;;;;;;;19.97;27.91;102366.75;7308659;19;129460;-62
2022/03/02 03:40:00;;;;;;;8.27;5.80;;;;;;;19.97;27.72;102355.66;7309749;19;130675;-62
2022/03/02 03:42:27;;;;;;;6.68;5.72;;;;;;;19.95;28.16;102353.06;7309199;19;130419;-63
2022/03/02 03:44:57;;;;;;;8.45;5.93;;;;;;;19.94;28.00;102345.81;7309251;19;128957;-62
2022/03/02 03:47:24;;;;;;;8.52;6.30;;;;;;;19.94;27.79;102345.81;7310462;19;129710;-62
2022/03/02 03:49:51;;;;;;;8.13;6.10;;;;;;;19.93;27.87;102349.69;7308258;19;130021;-63
2022/03/02 03:52:17;;;;;;;9.10;5.88;;;;;;;19.92;27.89;102342.41;7309186;19;130515;-62
2022/03/02 03:54:44;;;;;;;7.60;6.05;;;;;;;19.91;27.83;102343.50;7309815;19;129904;-62
2022/03/02 03:57:11;;;;;;;9.77;6.32;;;;;;;19.91;28.22;102350.94;7308984;19;129451;-62
2022/03/02 03:59:38;;;;;;;9.02;6.20;;;;;;;19.90;28.03;102343.69;7310621;19;130634;-62
2022/03/02 04:02:05;;;;;;;8.27;6.10;;;;;;;19.89;28.10;102342.84;7306785;19;130245;-67
2022/03/02 04:04:32;;;;;;;9.02;6.57;;;;;;;19.88;27.69;102341.16;7309817;19;129295;-67
2022/03/02 04:06:59;;;;;;;8.20;5.97;;;;;;;19.88;27.58;102343.09;7310350;19;129160;-72
2022/03/02 04:09:26;;;;;;;8.40;6.50;;;;;;;19.86;27.76;102337.72;7307235;19;129579;-72
2022/03/02 04:11:53;;;;;;;8.93;6.05;;;;;;;19.85;27.54;102333.25;7317577;19;129528;-70
2022/03/02 04:14:19;;;;;;;7.57;6.13;;;;;;;19.84;27.56;102331.53;7315083;19;129255;-71
2022/03/02 04:16:46;;;;;;;6.68;5.78;;;;;;;19.84;27.62;102326.00;7316337;19;129192;-66
2022/03/02 04:19:13;;;;;;;8.13;6.10;;;;;;;19.83;27.57;102327.06;7314721;19;129550;-70
2022/03/02 04:21:40;;;;;;;7.75;5.82;;;;;;;19.83;27.77;102324.28;7315190;19;130619;-72
2022/03/02 04:24:06;;;;;;;9.13;6.80;;;;;;;19.80;27.75;102320.03;7317468;19;129167;-72
2022/03/02 04:26:33;;;;;;;9.73;6.82;;;;;;;19.80;27.51;102321.97;7314984;19;129206;-68
2022/03/02 04:29:00;;;;;;;7.70;5.93;;;;;;;19.79;27.57;102320.25;7314731;19;130517;-72
2022/03/02 04:31:27;;;;;;;8.98;5.68;;;;;;;19.78;27.82;102318.56;7317233;19;130498;-73
2022/03/02 04:33:54;;;;;;;8.82;6.05;;;;;;;19.77;28.02;102319.63;7315242;19;129410;-71
2022/03/02 04:36:21;;;;;;;7.82;5.97;;;;;;;19.76;27.89;102318.75;7316895;19;129024;-70
2022/03/02 04:38:48;;;;;;;7.78;6.00;;;;;;;19.76;28.09;102315.13;7313491;19;130698;-73
2022/03/02 04:41:15;;;;;;;8.07;5.90;;;;;;;19.75;28.01;102307.88;7313966;19;129903;-72
2022/03/02 04:43:43;;;;;;;8.27;6.07;;;;;;;19.74;28.00;102306.16;7317050;19;128865;-62
2022/03/02 04:46:10;;;;;;;8.25;5.90;;;;;;;19.73;27.55;102305.34;7314139;19;129042;-62
2022/03/02 04:48:36;;;;;;;8.18;5.63;;;;;;;19.74;28.00;102300.63;7315731;19;130078;-62
2022/03/02 04:51:03;;;;;;;7.68;5.85;;;;;;;19.74;28.05;102295.06;7313896;19;129541;-62
2022/03/02 04:53:30;;;;;;;8.20;5.95;;;;;;;19.74;27.68;102297.84;7315138;19;130005;-62
2022/03/02 04:55:57;;;;;;;7.68;5.90;;;;;;;19.77;27.73;102300.19;7313539;19;130068;-62
2022/03/02 04:58:24;;;;;;;7.22;5.18;;;;;;;19.85;27.41;102297.16;7313333;19;130667;-62
2022/03/02 05:00:50;;;;;;;6.65;4.90;;;;;;;19.97;27.65;102291.75;7316517;19;131455;-62
2022/03/02 05:03:17;;;;;;;6.57;5.28;;;;;;;20.14;27.65;102289.34;7313191;19;129764;-62
2022/03/02 05:05:44;;;;;;;8.95;5.10;;;;;;;20.37;27.15;102293.44;7315263;19;130432;-62
2022/03/02 05:08:11;;;;;;;6.88;4.88;;;;;;;20.58;27.04;102290.28;7315023;19;129637;-62
2022/03/02 05:10:38;;;;;;;6.30;4.93;;;;;;;20.84;26.63;102288.38;7313050;19;130283;-62
2022/03/02 05:13:05;;;;;;;7.50;5.57;;;;;;;21.08;26.47;102291.34;7316580;19;129440;-63
2022/03/02 05:15:31;;;;;;;6.85;5.10;;;;;;;21.33;26.40;102290.44;7313231;19;129739;-62
2022/03/02 05:17:59;;;;;;;6.65;5.40;;;;;;;21.55;25.99;102284.44;7313228;19;131099;-62
2022/03/02 05:20:26;;;;;;;7.78;5.47;;;;;;;21.73;25.90;102284.44;7314197;19;129630;-62
2022/03/02 05:22:53;;;;;;;7.15;5.35;;;;;;;21.87;25.62;102287.03;7313821;19;129819;-62
2022/03/02 05:25:20;;;;;;;7.07;5.00;;;;;;;21.96;25.59;102286.47;7315881;19;130196;-63
2022/03/02 05:27:46;;;;;;;7.35;5.20;;;;;;;22.05;25.33;102286.13;7312909;19;129770;-62
2022/03/02 05:30:16;;;;;;;6.88;5.20;;;;;;;22.07;25.57;102290.38;7311353;19;130534;-62
2022/03/02 05:32:43;;;;;;;8.00;5.30;;;;;;;22.06;25.22;102288.69;7314707;19;128890;-62
2022/03/02 05:35:10;;;;;;;5.63;5.05;;;;;;;22.06;25.59;102283.09;7311478;19;129054;-62
2022/03/02 05:37:42;;;;;;;6.57;5.00;;;;;;;22.02;25.45;102289.38;7314897;19;129675;-62
2022/03/02 05:40:16;;;;;;;7.15;5.43;;;;;;;21.97;25.15;102287.31;7313671;19;131109;-62
2022/03/02 05:42:49;;;;;;;6.65;5.05;;;;;;;21.91;25.23;102285.50;7312887;19;128907;-62
2022/03/02 05:45:16;;;;;;;6.10;4.70;;;;;;;21.86;25.46;102282.53;7314414;19;129130;-62
2022/03/02 05:47:42;;;;;;;6.00;5.25;;;;;;;21.79;25.52;102288.22;7311394;19;130064;-62
2022/03/02 05:50:10;;;;;;;7.28;5.07;;;;;;;21.73;25.77;102283.56;7312936;19;129453;-62
2022/03/02 05:52:37;;;;;;;9.23;5.38;;;;;;;21.66;25.63;102283.69;7313899;19;129569;-62
2022/03/02 05:55:04;;;;;;;7.28;5.05;;;;;;;21.59;25.74;102294.03;7311338;19;128994;-62
2022/03/02 05:57:31;;;;;;;5.63;4.63;;;;;;;21.51;25.48;102276.56;7315093;19;130525;-62
2022/03/02 05:59:58;;;;;;;6.97;5.20;;;;;;;21.45;25.56;102280.25;7309296;19;129510;-62
2022/03/02 06:02:24;;;;;;;6.53;4.93;;;;;;;21.38;26.09;102279.47;7312485;19;129179;-62
2022/03/02 06:04:51;;;;;;;7.00;4.78;;;;;;;21.33;25.73;102284.88;7313851;19;129288;-62
2022/03/02 06:07:18;;;;;;;7.28;5.40;;;;;;;21.25;26.21;102279.63;7309946;19;129551;-62
2022/03/02 06:09:46;;;;;;;7.15;5.00;;;;;;;21.20;25.90;102280.31;7311240;19;130496;-59
2022/03/02 06:12:14;;;;;;;8.00;5.32;;;;;;;21.13;26.33;102277.63;7310842;19;128852;-59
2022/03/02 06:14:41;;;;;;;7.35;5.38;;;;;;;21.08;26.15;102280.22;7311515;19;129057;-57
2022/03/02 06:17:09;;;;;;;9.20;5.00;;;;;;;21.02;26.19;102289.50;7311776;19;129866;-59
2022/03/02 06:19:37;;;;;;;9.40;5.60;;;;;;;20.98;26.32;102286.34;7309525;19;129535;-61
2022/03/02 06:22:05;;;;;;;10.05;5.38;;;;;;;20.95;26.34;102294.28;7314485;19;130082;-62
2022/03/02 06:24:32;;;;;;;9.80;5.47;;;;;;;20.90;26.32;102293.03;7311156;19;129797;-61
2022/03/02 06:26:58;;;;;;;11.13;5.30;;;;;;;20.87;26.21;102282.38;7312176;19;129690;-61
2022/03/02 06:29:25;;;;;;;10.95;5.50;;;;;;;20.85;26.39;102298.44;7314153;19;130820;-60
2022/03/02 06:31:52;;;;;;;8.55;5.35;;;;;;;20.85;26.31;102298.44;7310457;19;129104;-60
2022/03/02 06:34:19;;;;;;;8.48;5.20;;;;;;;20.89;26.22;102302.47;7307937;19;129843;-60
2022/03/02 06:36:49;;;;;;;9.27;5.22;;;;;;;20.96;26.37;102307.09;7308557;19;130579;-60
2022/03/02 06:39:21;;;;;;;9.95;4.97;;;;;;;21.06;26.36;102302.72;7311050;19;129676;-59
2022/03/02 06:42:11;;;;;;;8.07;5.15;;;;;;;21.20;26.22;102300.66;7313140;19;130445;-60
2022/03/02 06:44:51;;;;;;;6.85;5.25;;;;;;;21.37;25.96;102302.81;7309809;19;129040;-60
2022/03/02 06:47:20;;;;;;;9.43;5.38;;;;;;;21.51;25.82;102298.84;7309806;19;130250;-60
2022/03/02 06:49:58;;;;;;;6.45;4.78;;;;;;;21.69;25.56;102297.09;7311128;19;130869;-60
2022/03/02 06:52:32;;;;;;;12.90;5.60;;;;;;;21.84;25.64;102291.16;7309297;19;129508;-59
2022/03/02 06:55:02;;;;;;;9.63;5.47;;;;;;;22.01;25.11;102296.03;7309121;19;128947;-59
2022/03/02 06:57:29;;;;;;;10.48;6.00;;;;;;;22.13;25.13;102289.44;7309265;19;129608;-59
2022/03/02 07:00:03;;;;;;;15.07;5.13;;;;;;;22.26;24.66;102287.56;7310401;19;129600;-60
2022/03/02 07:03:17;;;;;;;7.75;5.32;;;;;;;22.37;24.66;102295.13;7311074;19;128920;-59
2022/03/02 07:05:46;;;;;;;13.52;5.30;;;;;;;22.48;24.70;102300.94;7308143;19;129202;-59
2022/03/02 07:08:15;;;;;;;13.57;5.75;;;;;;;22.57;24.69;102305.09;7307548;19;131998;-60
2022/03/02 07:10:42;;;;;;;10.40;5.57;;;;;;;22.64;24.28;102304.97;7308815;19;130627;-59
2022/03/02 07:13:09;;;;;;;6.88;5.28;;;;;;;22.70;24.26;102293.72;7306383;19;129460;-59
2022/03/02 07:15:36;;;;;;;12.88;5.90;;;;;;;22.76;24.20;102303.03;7306439;19;131566;-59
2022/03/02 07:18:04;;;;;;;9.07;5.80;;;;;;;22.84;24.10;102299.88;7308919;19;130759;-60
2022/03/02 07:20:31;;;;;;;12.05;5.72;;;;;;;22.91;24.53;102291.44;7308711;19;129964;-59
2022/03/02 07:23:00;;;;;;;10.60;5.38;;;;;;;22.98;24.43;102294.09;7312006;19;129496;-62
2022/03/02 07:25:29;;;;;;;7.97;5.80;;;;;;;23.01;24.54;102296.41;7306881;19;132124;-60
2022/03/02 07:27:57;;;;;;;11.60;5.80;;;;;;;23.05;24.14;102301.25;7308963;19;130494;-61
2022/03/02 07:30:26;;;;;;;8.75;5.93;;;;;;;23.05;23.79;102309.63;7309328;19;131250;-60
2022/03/02 07:33:01;;;;;;;15.20;6.45;;;;;;;23.03;23.86;102311.81;7310126;19;129680;-61
2022/03/02 07:35:37;;;;;;;11.23;6.10;;;;;;;23.01;23.69;102305.66;7309561;19;129300;-62
2022/03/02 07:38:06;;;;;;;13.60;5.80;;;;;;;22.98;23.74;102300.56;7307775;19;130523;-60
2022/03/02 07:40:34;;;;;;;11.02;6.00;;;;;;;22.95;23.68;102297.41;7309309;19;129655;-60
2022/03/02 07:43:01;;;;;;;11.02;5.63;;;;;;;22.93;23.40;102302.38;7310648;19;129191;-62
2022/03/02 07:45:28;;;;;;;9.07;5.72;;;;;;;22.90;23.63;102286.94;7312850;19;129164;-55
2022/03/02 07:47:56;;;;;;;16.85;6.10;;;;;;;22.90;23.34;102286.94;7316440;19;130689;-60
2022/03/02 07:50:24;;;;;;;9.07;5.75;;;;;;;22.89;23.39;102296.41;7314000;19;130437;-59
2022/03/02 07:52:52;;;;;;;10.00;5.97;;;;;;;22.91;23.54;102287.81;7317586;19;131409;-60
2022/03/02 07:55:19;;;;;;;8.93;5.85;;;;;;;22.92;23.72;102289.50;7315058;19;129624;-58
2022/03/02 07:57:52;;;;;;;10.27;5.22;;;;;;;22.92;23.82;102290.34;7316220;19;131301;-59
2022/03/02 08:00:19;;;;;;;8.65;5.55;;;;;;;22.94;23.82;102290.94;7318162;19;130191;-58
2022/03/02 08:02:47;;;;;;;9.55;5.65;;;;;;;22.98;23.53;102281.00;7314503;19;129338;-59
2022/03/02 08:05:14;;;;;;;8.15;5.53;;;;;;;23.04;23.27;102288.41;7317495;19;129980;-59
2022/03/02 08:07:43;;;;;;;8.57;5.70;;;;;;;23.16;23.46;102284.75;7313834;19;130014;-59
2022/03/02 08:10:10;;;;;;;12.55;5.50;;;;;;;23.34;23.21;102284.59;7318077;19;129602;-61
2022/03/02 08:12:36;;;;;;;7.25;5.72;;;;;;;23.56;23.04;102289.53;7318849;19;128938;-54
2022/03/02 08:15:05;;;;;;;10.60;5.95;;;;;;;23.62;22.84;102285.78;7312105;19;129305;-54
2022/03/02 08:17:32;;;;;;;16.83;6.03;;;;;;;23.72;23.04;102292.69;7314745;19;129616;-50
2022/03/02 08:19:59;;;;;;;11.20;5.80;;;;;;;23.71;22.55;102285.41;7309379;19;130287;-51
2022/03/02 08:22:29;;;;;;;10.85;6.10;;;;;;;23.70;22.72;102294.88;7314461;19;129888;-57
2022/03/02 08:25:12;;;;;;;10.88;5.93;;;;;;;23.71;22.97;102296.56;7315370;19;129438;-59
2022/03/02 08:27:40;;;;;;;10.23;5.93;;;;;;;23.70;22.90;102300.47;7316205;19;129791;-59
2022/03/02 08:30:09;;;;;;;8.80;5.07;;;;;;;23.58;22.88;102295.75;7317229;19;129972;-60
2022/03/02 08:32:43;;;;;;;9.23;5.00;;;;;;;23.49;23.12;102300.84;7313991;19;129960;-60
2022/03/02 08:35:11;;;;;;;10.85;5.57;;;;;;;23.39;23.23;102306.22;7315910;19;129317;-60
2022/03/02 08:37:39;;;;;;;9.82;5.57;;;;;;;23.30;23.45;102302.09;7314214;19;130203;-60
2022/03/02 08:40:07;;;;;;;8.35;5.50;;;;;;;23.20;23.22;102305.50;7311181;19;129465;-61
2022/03/02 08:42:34;;;;;;;8.68;5.45;;;;;;;23.13;23.39;102294.47;7315894;19;129110;-61
2022/03/02 08:45:01;;;;;;;10.95;5.40;;;;;;;23.07;23.47;102295.47;7312332;19;128979;-61
2022/03/02 08:47:28;;;;;;;9.85;5.70;;;;;;;23.07;23.66;102297.38;7314104;19;131982;-61
2022/03/02 08:49:55;;;;;;;10.13;4.93;;;;;;;23.09;23.59;102295.19;7315120;19;129766;-61
2022/03/02 08:52:29;;;;;;;13.43;5.55;;;;;;;23.09;23.74;102298.81;7313629;19;129053;-61
2022/03/02 08:54:59;;;;;;;7.90;5.22;;;;;;;23.10;23.99;102300.53;7315681;19;129881;-62
2022/03/02 08:57:27;;;;;;;7.03;5.22;;;;;;;23.01;23.69;102296.41;7311120;19;132028;-61
2022/03/02 08:59:54;;;;;;;13.77;5.22;;;;;;;22.91;23.89;102283.06;7313506;19;131105;-61
2022/03/02 09:02:24;;;;;;;13.05;5.55;;;;;;;22.80;24.26;102289.47;7315517;19;130114;-61
2022/03/02 09:04:53;;;;;;;8.38;4.88;;;;;;;22.68;24.12;102290.31;7312003;19;128885;-61
2022/03/02 09:07:21;;;;;;;9.50;5.22;;;;;;;22.59;24.27;102280.59;7313970;19;129626;-61
2022/03/02 09:09:49;;;;;;;14.30;5.43;;;;;;;22.49;24.52;102289.53;7314529;19;130269;-61
2022/03/02 09:12:15;;;;;;;9.20;4.53;;;;;;;22.42;24.73;102284.06;7313339;19;129344;-61
2022/03/02 09:14:43;;;;;;;12.15;5.57;;;;;;;22.33;24.58;102282.72;7315412;19;129166;-61
2022/03/02 09:17:10;;;;;;;9.52;5.95;;;;;;;22.26;24.51;102270.84;7311453;19;132680;-60
2022/03/02 09:19:39;;;;;;;13.75;5.85;;;;;;;22.18;24.65;102274.78;7312453;19;132356;-61
2022/03/02 09:22:06;;;;;;;20.80;5.55;;;;;;;22.15;24.65;102268.84;7314216;19;129459;-61
2022/03/02 09:24:34;;;;;;;13.07;5.63;;;;;;;22.10;24.62;102273.19;7313061;19;130015;-61
2022/03/02 09:27:01;;;;;;;13.10;5.97;;;;;;;22.07;24.70;102265.28;7316025;19;132329;-61
2022/03/02 09:29:30;;;;;;;12.27;5.45;;;;;;;22.02;24.91;102259.59;7312224;19;129942;-61
2022/03/02 09:31:58;;;;;;;11.10;5.53;;;;;;;21.99;24.55;102248.91;7313632;19;130382;-60
2022/03/02 09:34:27;;;;;;;12.93;5.88;;;;;;;21.95;24.95;102258.84;7311416;19;129538;-60
2022/03/02 09:36:55;;;;;;;14.18;5.43;;;;;;;21.93;24.99;102255.44;7312365;19;130500;-62
2022/03/02 09:39:26;;;;;;;13.48;5.30;;;;;;;21.89;24.56;102257.00;7314313;19;129554;-61
2022/03/02 09:42:05;;;;;;;10.95;5.22;;;;;;;21.86;24.64;102254.69;7314254;19;129078;-61
2022/03/02 09:44:40;;;;;;;9.98;5.75;;;;;;;21.81;25.02;102256.22;7312175;19;129767;-61
2022/03/02 09:47:16;;;;;;;11.30;6.65;;;;;;;21.74;24.78;102249.91;7311916;19;130096;-60
2022/03/02 09:49:56;;;;;;;10.68;6.38;;;;;;;21.74;24.51;102244.34;7310423;19;129571;-61
2022/03/02 09:52:24;;;;;;;9.73;6.03;;;;;;;21.74;24.69;102237.91;7311333;19;129526;-61
2022/03/02 09:54:56;;;;;;;11.35;5.72;;;;;;;21.81;24.60;102233.94;7313145;19;129485;-61
2022/03/02 09:57:24;;;;;;;7.20;5.28;;;;;;;21.96;24.86;102235.47;7310098;19;129636;-60
2022/03/02 09:59:57;;;;;;;8.95;5.45;;;;;;;22.12;24.57;102242.28;7311977;19;129959;-60
2022/03/02 10:02:29;;;;;;;10.23;5.35;;;;;;;22.28;24.45;102235.19;7313328;19;129823;-61
2022/03/02 10:05:00;;;;;;;8.63;5.60;;;;;;;22.45;24.13;102240.94;7310971;19;129531;-61
2022/03/02 10:07:29;;;;;;;8.50;5.20;;;;;;;22.62;24.11;102240.22;7316142;19;129732;-61
2022/03/02 10:10:23;;;;;;;12.20;5.10;;;;;;;22.82;23.66;102234.28;7306958;19;129497;-61
2022/03/02 10:13:01;;;;;;;7.07;4.05;;;;;;;22.97;23.63;102231.88;7312990;19;128976;-61
2022/03/02 10:15:29;;;;;;;8.57;5.63;;;;;;;23.09;23.65;102228.22;7315202;19;129563;-61
2022/03/02 10:18:05;;;;;;;8.93;5.20;;;;;;;23.20;23.63;102233.75;7310142;19;130019;-61
2022/03/02 10:20:35;;;;;;;9.65;5.57;;;;;;;23.33;23.05;102234.56;7310854;19;129405;-61
2022/03/02 10:23:32;;;;;;;10.93;5.07;;;;;;;23.43;22.89;102219.97;7313655;19;129226;-61
2022/03/02 10:26:19;;;;;;;10.93;5.30;;;;;;;23.49;23.27;102219.00;7309984;19;129987;-61
2022/03/02 10:29:03;;;;;;;9.05;5.22;;;;;;;23.54;22.87;102219.09;7311350;19;129658;-61
2022/03/02 10:31:45;;;;;;;6.47;4.50;;;;;;;23.59;22.80;102223.97;7314739;19;129564;-61
2022/03/02 10:34:32;;;;;;;12.40;5.18;;;;;;;23.61;22.94;102217.03;7308761;19;128911;-61
2022/03/02 10:37:19;;;;;;;8.35;4.97;;;;;;;23.62;22.60;102220.69;7311684;19;129060;-61
2022/03/02 10:40:05;;;;;;;12.43;5.40;;;;;;;23.59;22.66;102219.25;7313316;19;131196;-61
2022/03/02 10:42:36;;;;;;;14.23;5.18;;;;;;;23.55;22.34;102220.78;7309287;19;129465;-64
2022/03/02 10:45:18;;;;;;;13.73;5.43;;;;;;;23.52;22.03;102218.50;7306838;19;130263;-64
2022/03/02 10:48:14;;;;;;;8.50;5.90;;;;;;;23.47;20.90;102215.59;7312754;19;129423;-63
2022/03/02 10:50:43;;;;;;;18.58;5.82;;;;;;;23.32;21.23;102219.78;7311142;19;130506;-61
2022/03/02 10:53:15;;;;;;;10.98;5.22;;;;;;;23.23;21.73;102214.81;7317819;19;129525;-62
2022/03/02 10:55:45;;;;;;;12.70;5.90;;;;;;;23.16;21.40;102213.03;7312790;19;128807;-64
2022/03/02 10:58:17;;;;;;;16.60;5.75;;;;;;;23.11;21.49;102210.13;7308888;19;129883;-62
2022/03/02 11:00:47;;;;;;;12.77;5.65;;;;;;;23.08;21.74;102210.59;7314339;19;129640;-60
2022/03/02 11:03:14;;;;;;;15.30;6.28;;;;;;;23.06;21.58;102212.81;7310920;19;129918;-61
2022/03/02 11:05:42;;;;;;;15.02;5.45;;;;;;;23.03;21.48;102207.72;7310833;19;129215;-60
2022/03/02 11:08:09;;;;;;;10.02;5.85;;;;;;;23.02;21.57;102206.84;7312063;19;129394;-58
2022/03/02 11:10:40;;;;;;;11.38;5.65;;;;;;;22.99;21.79;102204.56;7307327;19;130007;-57
2022/03/02 11:13:13;;;;;;;8.15;5.00;;;;;;;23.00;21.96;102203.47;7311177;19;130301;-59
2022/03/02 11:15:51;;;;;;;13.20;5.97;;;;;;;22.97;21.70;102206.75;7309357;19;129018;-60
2022/03/02 11:18:39;;;;;;;11.40;4.68;;;;;;;22.93;22.06;102196.34;7307894;19;128993;-61
2022/03/02 11:21:20;;;;;;;12.88;5.32;;;;;;;22.88;21.86;102194.25;7311356;19;130190;-61
2022/03/02 11:23:50;;;;;;;9.48;5.28;;;;;;;22.84;21.99;102188.28;7307845;19;130140;-60